sensor_id;sensor_type;location;lat;lon;timestamp;pressure;altitude;pressure_sealevel;temperature;humidity
71361;BME280;59166;48.908;1.870;2023-03-03T00:03:51;100871.97;;;1.85;93.57
71361;BME280;59166;48.908;1.870;2023-03-03T00:08:52;100876.13;;;1.73;93.77
71361;BME280;59166;48.908;1.870;2023-03-03T00:13:55;100874.31;;;1.58;95.50
71361;BME280;59166;48.908;1.870;2023-03-03T00:18:56;100878.84;;;1.58;95.25
71361;BME280;59166;48.908;1.870;2023-03-03T00:24:13;100872.16;;;1.47;96.49
71361;BME280;59166;48.908;1.870;2023-03-03T00:29:32;100873.94;;;1.40;97.26
71361;BME280;59166;48.908;1.870;2023-03-03T00:34:34;100880.78;;;1.35;98.00
71361;BME280;59166;48.908;1.870;2023-03-03T00:39:37;100876.69;;;1.32;99.03
71361;BME280;59166;48.908;1.870;2023-03-03T00:44:41;100867.88;;;1.32;99.97
71361;BME280;59166;48.908;1.870;2023-03-03T00:49:42;100874.03;;;1.32;100.00
71361;BME280;59166;48.908;1.870;2023-03-03T00:54:43;100879.53;;;1.31;100.00
71361;BME280;59166;48.908;1.870;2023-03-03T00:59:46;100873.56;;;1.29;99.34
71361;BME280;59166;48.908;1.870;2023-03-03T01:04:50;100873.09;;;1.25;99.77
71361;BME280;59166;48.908;1.870;2023-03-03T01:09:51;100874.31;;;1.23;99.62
71361;BME280;59166;48.908;1.870;2023-03-03T01:14:54;100869.53;;;1.18;99.50
71361;BME280;59166;48.908;1.870;2023-03-03T01:19:55;100882.75;;;1.11;99.35
71361;BME280;59166;48.908;1.870;2023-03-03T01:24:55;100877.63;;;1.10;100.00
71361;BME280;59166;48.908;1.870;2023-03-03T01:29:58;100879.00;;;1.06;100.00
71361;BME280;59166;48.908;1.870;2023-03-03T01:34:59;100888.38;;;1.02;100.00
71361;BME280;59166;48.908;1.870;2023-03-03T01:39:59;100884.63;;;0.96;100.00
71361;BME280;59166;48.908;1.870;2023-03-03T01:45:14;100887.66;;;0.93;100.00
71361;BME280;59166;48.908;1.870;2023-03-03T01:50:24;100875.06;;;0.87;100.00
71361;BME280;59166;48.908;1.870;2023-03-03T01:55:29;100867.44;;;0.84;100.00
71361;BME280;59166;48.908;1.870;2023-03-03T02:00:34;100867.44;;;0.84;100.00
71361;BME280;59166;48.908;1.870;2023-03-03T02:05:36;100856.91;;;0.76;100.00
71361;BME280;59166;48.908;1.870;2023-03-03T02:10:39;100856.84;;;0.70;100.00
71361;BME280;59166;48.908;1.870;2023-03-03T02:15:41;100858.72;;;0.61;100.00
71361;BME280;59166;48.908;1.870;2023-03-03T02:20:48;100856.97;;;0.53;100.00
71361;BME280;59166;48.908;1.870;2023-03-03T02:26:12;100863.69;;;0.49;100.00
71361;BME280;59166;48.908;1.870;2023-03-03T02:31:16;100851.75;;;0.45;100.00
71361;BME280;59166;48.908;1.870;2023-03-03T02:36:19;100853.03;;;0.35;100.00
71361;BME280;59166;48.908;1.870;2023-03-03T02:41:28;100851.47;;;0.26;100.00
71361;BME280;59166;48.908;1.870;2023-03-03T02:46:33;100855.13;;;0.25;100.00
71361;BME280;59166;48.908;1.870;2023-03-03T02:51:34;100850.25;;;0.28;100.00
71361;BME280;59166;48.908;1.870;2023-03-03T02:56:37;100859.78;;;0.23;100.00
71361;BME280;59166;48.908;1.870;2023-03-03T03:01:39;100860.78;;;0.22;100.00
71361;BME280;59166;48.908;1.870;2023-03-03T03:06:40;100856.94;;;0.24;100.00
71361;BME280;59166;48.908;1.870;2023-03-03T03:11:43;100863.25;;;0.23;100.00
71361;BME280;59166;48.908;1.870;2023-03-03T03:16:44;100861.78;;;0.21;100.00
71361;BME280;59166;48.908;1.870;2023-03-03T03:21:44;100867.47;;;0.18;100.00
71361;BME280;59166;48.908;1.870;2023-03-03T03:26:47;100873.13;;;0.15;100.00
71361;BME280;59166;48.908;1.870;2023-03-03T03:31:47;100864.38;;;0.06;100.00
71361;BME280;59166;48.908;1.870;2023-03-03T03:36:48;100861.00;;;-0.03;100.00
71361;BME280;59166;48.908;1.870;2023-03-03T03:41:51;100867.19;;;-0.10;100.00
71361;BME280;59166;48.908;1.870;2023-03-03T03:46:51;100864.75;;;-0.20;100.00
71361;BME280;59166;48.908;1.870;2023-03-03T03:51:52;100866.78;;;-0.22;100.00
71361;BME280;59166;48.908;1.870;2023-03-03T03:56:55;100862.78;;;-0.18;100.00
71361;BME280;59166;48.908;1.870;2023-03-03T04:01:56;100865.25;;;-0.16;100.00
71361;BME280;59166;48.908;1.870;2023-03-03T04:06:57;100871.66;;;-0.11;100.00
71361;BME280;59166;48.908;1.870;2023-03-03T04:11:59;100878.09;;;-0.05;100.00
71361;BME280;59166;48.908;1.870;2023-03-03T04:17:00;100879.75;;;-0.04;100.00
71361;BME280;59166;48.908;1.870;2023-03-03T04:22:01;100869.94;;;-0.04;100.00
71361;BME280;59166;48.908;1.870;2023-03-03T04:27:03;100870.19;;;-0.13;100.00
71361;BME280;59166;48.908;1.870;2023-03-03T04:32:04;100874.66;;;-0.14;100.00
71361;BME280;59166;48.908;1.870;2023-03-03T04:37:05;100880.69;;;-0.20;100.00
71361;BME280;59166;48.908;1.870;2023-03-03T04:42:07;100884.66;;;-0.16;100.00
71361;BME280;59166;48.908;1.870;2023-03-03T04:47:07;100887.31;;;-0.16;100.00
71361;BME280;59166;48.908;1.870;2023-03-03T04:52:08;100898.75;;;-0.15;100.00
71361;BME280;59166;48.908;1.870;2023-03-03T04:57:10;100885.28;;;-0.14;100.00
71361;BME280;59166;48.908;1.870;2023-03-03T05:02:10;100873.16;;;-0.08;100.00
71361;BME280;59166;48.908;1.870;2023-03-03T05:07:11;100883.31;;;-0.12;100.00
71361;BME280;59166;48.908;1.870;2023-03-03T05:12:13;100882.75;;;-0.07;100.00
71361;BME280;59166;48.908;1.870;2023-03-03T05:17:14;100883.41;;;-0.05;100.00
71361;BME280;59166;48.908;1.870;2023-03-03T05:22:15;100891.28;;;-0.12;100.00
71361;BME280;59166;48.908;1.870;2023-03-03T05:27:17;100889.97;;;-0.16;100.00
71361;BME280;59166;48.908;1.870;2023-03-03T05:32:17;100894.31;;;-0.23;100.00
71361;BME280;59166;48.908;1.870;2023-03-03T05:37:18;100900.09;;;-0.19;100.00
71361;BME280;59166;48.908;1.870;2023-03-03T05:42:20;100896.97;;;-0.23;100.00
71361;BME280;59166;48.908;1.870;2023-03-03T05:47:20;100895.78;;;-0.20;100.00
71361;BME280;59166;48.908;1.870;2023-03-03T05:52:21;100897.50;;;-0.27;100.00
71361;BME280;59166;48.908;1.870;2023-03-03T05:57:23;100906.00;;;-0.32;100.00
71361;BME280;59166;48.908;1.870;2023-03-03T06:02:24;100909.03;;;-0.43;100.00
71361;BME280;59166;48.908;1.870;2023-03-03T06:07:24;100906.75;;;-0.46;100.00
71361;BME280;59166;48.908;1.870;2023-03-03T06:12:26;100902.13;;;-0.52;100.00
71361;BME280;59166;48.908;1.870;2023-03-03T06:17:27;100904.25;;;-0.48;100.00
71361;BME280;59166;48.908;1.870;2023-03-03T06:22:27;100897.78;;;-0.45;100.00
71361;BME280;59166;48.908;1.870;2023-03-03T06:27:29;100909.69;;;-0.41;100.00
71361;BME280;59166;48.908;1.870;2023-03-03T06:32:30;100919.75;;;-0.28;100.00
71361;BME280;59166;48.908;1.870;2023-03-03T06:37:31;100923.53;;;-0.23;100.00
71361;BME280;59166;48.908;1.870;2023-03-03T06:42:33;100925.78;;;-0.12;100.00
71361;BME280;59166;48.908;1.870;2023-03-03T06:47:33;100924.00;;;0.03;100.00
71361;BME280;59166;48.908;1.870;2023-03-03T06:52:34;100939.69;;;0.13;100.00
71361;BME280;59166;48.908;1.870;2023-03-03T06:57:36;100943.16;;;0.22;100.00
71361;BME280;59166;48.908;1.870;2023-03-03T07:02:37;100952.44;;;0.40;100.00
71361;BME280;59166;48.908;1.870;2023-03-03T07:07:37;100955.41;;;0.45;100.00
71361;BME280;59166;48.908;1.870;2023-03-03T07:12:39;100975.13;;;0.51;100.00
71361;BME280;59166;48.908;1.870;2023-03-03T07:17:43;100985.97;;;0.64;100.00
71361;BME280;59166;48.908;1.870;2023-03-03T07:22:45;100988.09;;;0.69;100.00
71361;BME280;59166;48.908;1.870;2023-03-03T07:27:47;100990.16;;;0.81;100.00
71361;BME280;59166;48.908;1.870;2023-03-03T07:32:48;101003.84;;;0.93;100.00
71361;BME280;59166;48.908;1.870;2023-03-03T07:37:48;100999.25;;;1.01;100.00
71361;BME280;59166;48.908;1.870;2023-03-03T07:42:50;101009.63;;;1.11;100.00
71361;BME280;59166;48.908;1.870;2023-03-03T07:47:51;101011.13;;;1.28;100.00
71361;BME280;59166;48.908;1.870;2023-03-03T07:52:55;101021.41;;;1.46;100.00
71361;BME280;59166;48.908;1.870;2023-03-03T07:58:14;101026.19;;;1.50;100.00
71361;BME280;59166;48.908;1.870;2023-03-03T08:03:18;101037.19;;;1.62;100.00
71361;BME280;59166;48.908;1.870;2023-03-03T08:08:30;101031.88;;;1.62;100.00
71361;BME280;59166;48.908;1.870;2023-03-03T08:13:38;101041.78;;;1.83;100.00
71361;BME280;59166;48.908;1.870;2023-03-03T08:18:43;101049.03;;;1.89;100.00
71361;BME280;59166;48.908;1.870;2023-03-03T08:23:44;101054.53;;;1.87;100.00
71361;BME280;59166;48.908;1.870;2023-03-03T08:28:46;101053.25;;;1.98;100.00
71361;BME280;59166;48.908;1.870;2023-03-03T08:33:47;101055.59;;;2.22;100.00
71361;BME280;59166;48.908;1.870;2023-03-03T08:38:48;101057.31;;;2.30;100.00
71361;BME280;59166;48.908;1.870;2023-03-03T08:43:50;101063.84;;;2.27;100.00
71361;BME280;59166;48.908;1.870;2023-03-03T08:48:50;101071.28;;;2.32;100.00
71361;BME280;59166;48.908;1.870;2023-03-03T08:53:51;101070.44;;;2.46;100.00
71361;BME280;59166;48.908;1.870;2023-03-03T08:58:53;101074.75;;;2.68;100.00
71361;BME280;59166;48.908;1.870;2023-03-03T09:03:54;101077.63;;;3.37;99.07
71361;BME280;59166;48.908;1.870;2023-03-03T09:08:54;101076.63;;;3.79;92.13
71361;BME280;59166;48.908;1.870;2023-03-03T09:14:01;101071.97;;;4.35;91.10
71361;BME280;59166;48.908;1.870;2023-03-03T09:19:20;101069.28;;;4.35;89.64
71361;BME280;59166;48.908;1.870;2023-03-03T09:24:24;101075.56;;;4.75;86.59
71361;BME280;59166;48.908;1.870;2023-03-03T09:29:28;101065.47;;;4.83;84.27
71361;BME280;59166;48.908;1.870;2023-03-03T09:34:38;101070.22;;;4.81;85.23
71361;BME280;59166;48.908;1.870;2023-03-03T09:39:39;101071.06;;;5.08;81.89
71361;BME280;59166;48.908;1.870;2023-03-03T09:45:01;101074.34;;;5.23;82.07
71361;BME280;59166;48.908;1.870;2023-03-03T09:50:13;101068.94;;;5.62;80.58
71361;BME280;59166;48.908;1.870;2023-03-03T09:55:38;101074.91;;;5.71;78.19
71361;BME280;59166;48.908;1.870;2023-03-03T10:00:49;101071.38;;;5.90;77.30
71361;BME280;59166;48.908;1.870;2023-03-03T10:05:55;101078.75;;;5.95;77.00
71361;BME280;59166;48.908;1.870;2023-03-03T10:11:02;101080.19;;;6.04;74.62
71361;BME280;59166;48.908;1.870;2023-03-03T10:21:41;101103.34;;;6.43;73.94
71361;BME280;59166;48.908;1.870;2023-03-03T10:27:00;101097.63;;;6.77;72.85
71361;BME280;59166;48.908;1.870;2023-03-03T10:32:28;101105.00;;;6.88;70.65
71361;BME280;59166;48.908;1.870;2023-03-03T10:37:42;101109.56;;;7.12;71.20
71361;BME280;59166;48.908;1.870;2023-03-03T10:48:35;101099.56;;;7.19;67.81
71361;BME280;59166;48.908;1.870;2023-03-03T10:53:46;101104.84;;;7.33;67.44
71361;BME280;59166;48.908;1.870;2023-03-03T10:59:03;101109.38;;;7.39;65.82
71361;BME280;59166;48.908;1.870;2023-03-03T11:04:27;101100.47;;;7.38;65.58
71361;BME280;59166;48.908;1.870;2023-03-03T11:09:48;101107.06;;;7.85;65.07
71361;BME280;59166;48.908;1.870;2023-03-03T11:15:01;101115.59;;;8.18;61.63
71361;BME280;59166;48.908;1.870;2023-03-03T11:20:12;101109.69;;;8.10;64.67
71361;BME280;59166;48.908;1.870;2023-03-03T11:25:26;101122.47;;;8.51;60.19
71361;BME280;59166;48.908;1.870;2023-03-03T11:30:43;101109.00;;;8.51;61.24
71361;BME280;59166;48.908;1.870;2023-03-03T11:35:50;101101.03;;;8.86;59.51
71361;BME280;59166;48.908;1.870;2023-03-03T11:40:56;101090.88;;;8.88;58.60
71361;BME280;59166;48.908;1.870;2023-03-03T11:46:01;101098.22;;;9.10;58.08
71361;BME280;59166;48.908;1.870;2023-03-03T11:51:05;101082.06;;;9.33;56.50
71361;BME280;59166;48.908;1.870;2023-03-03T11:56:16;101080.41;;;9.21;56.07
71361;BME280;59166;48.908;1.870;2023-03-03T12:01:22;101086.97;;;9.13;57.76
71361;BME280;59166;48.908;1.870;2023-03-03T12:06:32;101084.06;;;9.73;58.89
71361;BME280;59166;48.908;1.870;2023-03-03T12:11:46;101075.50;;;9.76;56.62
71361;BME280;59166;48.908;1.870;2023-03-03T12:16:51;101069.75;;;9.96;56.10
71361;BME280;59166;48.908;1.870;2023-03-03T12:22:10;101067.41;;;9.76;55.63
71361;BME280;59166;48.908;1.870;2023-03-03T12:27:20;101064.72;;;9.64;56.17
71361;BME280;59166;48.908;1.870;2023-03-03T12:32:31;101058.03;;;9.67;57.88
71361;BME280;59166;48.908;1.870;2023-03-03T12:37:52;101064.34;;;9.84;56.82
71361;BME280;59166;48.908;1.870;2023-03-03T12:43:05;101053.34;;;9.74;59.29
71361;BME280;59166;48.908;1.870;2023-03-03T12:48:14;101049.06;;;10.01;59.20
71361;BME280;59166;48.908;1.870;2023-03-03T12:53:26;101049.41;;;10.16;57.47
71361;BME280;59166;48.908;1.870;2023-03-03T12:58:38;101058.28;;;10.17;55.65
71361;BME280;59166;48.908;1.870;2023-03-03T13:03:47;101045.81;;;9.99;55.79
71361;BME280;59166;48.908;1.870;2023-03-03T13:09:10;101047.16;;;10.13;54.87
71361;BME280;59166;48.908;1.870;2023-03-03T13:14:23;101056.75;;;10.32;54.88
71361;BME280;59166;48.908;1.870;2023-03-03T13:19:30;101042.47;;;10.09;54.21
71361;BME280;59166;48.908;1.870;2023-03-03T13:24:40;101031.22;;;10.12;53.45
71361;BME280;59166;48.908;1.870;2023-03-03T13:29:53;101020.47;;;10.28;53.40
71361;BME280;59166;48.908;1.870;2023-03-03T13:35:00;101037.00;;;10.32;51.56
71361;BME280;59166;48.908;1.870;2023-03-03T13:40:13;101041.78;;;10.42;50.87
71361;BME280;59166;48.908;1.870;2023-03-03T13:45:22;101041.41;;;10.50;50.86
71361;BME280;59166;48.908;1.870;2023-03-03T13:50:28;101029.06;;;10.25;51.73
71361;BME280;59166;48.908;1.870;2023-03-03T13:55:33;101031.53;;;10.44;52.11
71361;BME280;59166;48.908;1.870;2023-03-03T14:00:47;101036.03;;;10.66;51.60
71361;BME280;59166;48.908;1.870;2023-03-03T14:05:56;101025.56;;;10.70;51.30
71361;BME280;59166;48.908;1.870;2023-03-03T14:11:08;101025.47;;;10.65;50.92
71361;BME280;59166;48.908;1.870;2023-03-03T14:16:16;101026.50;;;10.64;51.59
71361;BME280;59166;48.908;1.870;2023-03-03T14:21:21;101029.19;;;10.75;49.16
71361;BME280;59166;48.908;1.870;2023-03-03T14:26:24;101023.19;;;10.73;49.49
71361;BME280;59166;48.908;1.870;2023-03-03T14:31:28;101026.78;;;10.62;49.20
71361;BME280;59166;48.908;1.870;2023-03-03T14:36:31;101030.47;;;10.73;49.87
71361;BME280;59166;48.908;1.870;2023-03-03T14:41:39;101027.31;;;10.76;48.72
71361;BME280;59166;48.908;1.870;2023-03-03T14:46:42;101027.94;;;10.66;49.30
71361;BME280;59166;48.908;1.870;2023-03-03T14:51:45;101022.31;;;10.40;49.11
71361;BME280;59166;48.908;1.870;2023-03-03T14:57:01;101005.91;;;10.29;50.91
71361;BME280;59166;48.908;1.870;2023-03-03T15:02:27;101015.06;;;10.57;49.29
71361;BME280;59166;48.908;1.870;2023-03-03T15:07:32;100998.94;;;10.62;48.63
71361;BME280;59166;48.908;1.870;2023-03-03T15:12:35;101012.47;;;10.50;49.74
71361;BME280;59166;48.908;1.870;2023-03-03T15:17:40;101014.03;;;10.18;49.33
71361;BME280;59166;48.908;1.870;2023-03-03T15:22:47;101008.41;;;10.19;49.20
71361;BME280;59166;48.908;1.870;2023-03-03T15:27:51;101004.06;;;10.18;50.38
71361;BME280;59166;48.908;1.870;2023-03-03T15:32:59;101004.19;;;10.40;50.34
71361;BME280;59166;48.908;1.870;2023-03-03T15:38:11;101007.00;;;10.17;48.04
71361;BME280;59166;48.908;1.870;2023-03-03T15:43:21;101010.56;;;10.06;49.80
71361;BME280;59166;48.908;1.870;2023-03-03T15:48:45;101016.34;;;9.86;50.13
71361;BME280;59166;48.908;1.870;2023-03-03T15:54:01;101011.91;;;9.80;51.38
71361;BME280;59166;48.908;1.870;2023-03-03T15:59:35;101026.97;;;9.53;52.49
71361;BME280;59166;48.908;1.870;2023-03-03T16:04:48;101032.81;;;9.50;53.02
71361;BME280;59166;48.908;1.870;2023-03-03T16:09:59;101021.34;;;9.43;53.20
71361;BME280;59166;48.908;1.870;2023-03-03T16:15:15;101034.34;;;9.22;52.83
71361;BME280;59166;48.908;1.870;2023-03-03T16:20:22;101033.41;;;9.17;54.31
71361;BME280;59166;48.908;1.870;2023-03-03T16:25:50;101034.25;;;9.17;53.79
71361;BME280;59166;48.908;1.870;2023-03-03T16:30:59;101047.22;;;8.97;55.30
71361;BME280;59166;48.908;1.870;2023-03-03T16:36:08;101053.38;;;8.86;55.54
71361;BME280;59166;48.908;1.870;2023-03-03T16:41:13;101059.50;;;8.63;57.01
71361;BME280;59166;48.908;1.870;2023-03-03T16:46:24;101057.13;;;8.55;57.33
71361;BME280;59166;48.908;1.870;2023-03-03T16:51:40;101066.09;;;8.19;57.96
71361;BME280;59166;48.908;1.870;2023-03-03T16:56:50;101062.75;;;8.06;59.36
71361;BME280;59166;48.908;1.870;2023-03-03T17:01:59;101058.13;;;7.95;59.35
71361;BME280;59166;48.908;1.870;2023-03-03T17:07:12;101077.91;;;7.82;60.64
71361;BME280;59166;48.908;1.870;2023-03-03T17:12:29;101082.31;;;7.58;61.46
71361;BME280;59166;48.908;1.870;2023-03-03T17:17:40;101091.59;;;7.38;62.21
71361;BME280;59166;48.908;1.870;2023-03-03T17:22:53;101097.97;;;7.18;63.54
71361;BME280;59166;48.908;1.870;2023-03-03T17:28:11;101099.09;;;7.04;64.52
71361;BME280;59166;48.908;1.870;2023-03-03T17:33:29;101111.59;;;6.86;65.61
71361;BME280;59166;48.908;1.870;2023-03-03T17:38:45;101122.88;;;6.63;66.25
71361;BME280;59166;48.908;1.870;2023-03-03T17:43:54;101127.69;;;6.54;66.89
71361;BME280;59166;48.908;1.870;2023-03-03T17:49:08;101137.81;;;6.39;67.79
71361;BME280;59166;48.908;1.870;2023-03-03T17:54:37;101148.44;;;6.14;68.78
71361;BME280;59166;48.908;1.870;2023-03-03T17:59:54;101154.25;;;5.92;69.81
71361;BME280;59166;48.908;1.870;2023-03-03T18:05:20;101158.41;;;5.74;71.48
71361;BME280;59166;48.908;1.870;2023-03-03T18:10:44;101158.84;;;5.52;72.33
71361;BME280;59166;48.908;1.870;2023-03-03T18:15:59;101143.59;;;5.39;73.37
71361;BME280;59166;48.908;1.870;2023-03-03T18:21:06;101164.19;;;5.26;74.40
71361;BME280;59166;48.908;1.870;2023-03-03T18:26:35;101164.19;;;5.12;75.41
71361;BME280;59166;48.908;1.870;2023-03-03T18:31:45;101176.72;;;5.05;75.97
71361;BME280;59166;48.908;1.870;2023-03-03T18:36:53;101185.94;;;4.96;76.89
71361;BME280;59166;48.908;1.870;2023-03-03T18:42:09;101195.78;;;4.83;76.98
71361;BME280;59166;48.908;1.870;2023-03-03T18:47:10;101202.59;;;4.79;77.58
71361;BME280;59166;48.908;1.870;2023-03-03T18:52:17;101203.81;;;4.76;77.87
71361;BME280;59166;48.908;1.870;2023-03-03T18:57:20;101209.97;;;4.70;78.84
71361;BME280;59166;48.908;1.870;2023-03-03T19:02:29;101208.69;;;4.59;79.24
71361;BME280;59166;48.908;1.870;2023-03-03T19:07:47;101209.81;;;4.37;80.20
71361;BME280;59166;48.908;1.870;2023-03-03T19:12:53;101209.09;;;4.22;80.25
71361;BME280;59166;48.908;1.870;2023-03-03T19:17:56;101213.16;;;4.11;81.64
71361;BME280;59166;48.908;1.870;2023-03-03T19:23:01;101222.13;;;3.97;81.89
71361;BME280;59166;48.908;1.870;2023-03-03T19:28:24;101216.34;;;3.94;83.14
71361;BME280;59166;48.908;1.870;2023-03-03T19:33:48;101218.78;;;3.95;82.91
71361;BME280;59166;48.908;1.870;2023-03-03T19:39:06;101226.97;;;3.87;84.22
71361;BME280;59166;48.908;1.870;2023-03-03T19:44:35;101225.81;;;3.96;84.04
71361;BME280;59166;48.908;1.870;2023-03-03T19:49:52;101230.72;;;3.93;83.35
71361;BME280;59166;48.908;1.870;2023-03-03T19:55:20;101228.88;;;3.93;83.12
71361;BME280;59166;48.908;1.870;2023-03-03T20:00:28;101233.50;;;3.85;85.06
71361;BME280;59166;48.908;1.870;2023-03-03T20:05:35;101227.38;;;3.84;85.21
71361;BME280;59166;48.908;1.870;2023-03-03T20:10:43;101234.72;;;3.82;83.95
71361;BME280;59166;48.908;1.870;2023-03-03T20:15:51;101236.91;;;3.72;85.39
71361;BME280;59166;48.908;1.870;2023-03-03T20:21:07;101238.97;;;3.70;85.70
71361;BME280;59166;48.908;1.870;2023-03-03T20:26:17;101251.53;;;3.76;86.17
71361;BME280;59166;48.908;1.870;2023-03-03T20:31:25;101260.56;;;3.75;85.84
71361;BME280;59166;48.908;1.870;2023-03-03T20:36:35;101259.38;;;3.78;85.98
71361;BME280;59166;48.908;1.870;2023-03-03T20:41:58;101261.84;;;3.79;86.01
71361;BME280;59166;48.908;1.870;2023-03-03T20:47:10;101259.44;;;3.84;86.06
71361;BME280;59166;48.908;1.870;2023-03-03T20:52:18;101270.97;;;3.91;85.46
71361;BME280;59166;48.908;1.870;2023-03-03T20:57:26;101268.06;;;3.86;85.82
71361;BME280;59166;48.908;1.870;2023-03-03T21:02:38;101265.53;;;3.78;85.93
71361;BME280;59166;48.908;1.870;2023-03-03T21:07:54;101270.88;;;3.78;86.66
71361;BME280;59166;48.908;1.870;2023-03-03T21:12:57;101265.91;;;3.75;86.73
71361;BME280;59166;48.908;1.870;2023-03-03T21:18:20;101275.59;;;3.76;86.96
71361;BME280;59166;48.908;1.870;2023-03-03T21:23:21;101272.09;;;3.76;86.87
71361;BME280;59166;48.908;1.870;2023-03-03T21:28:24;101278.00;;;3.71;86.33
71361;BME280;59166;48.908;1.870;2023-03-03T21:33:51;101282.72;;;3.69;86.40
71361;BME280;59166;48.908;1.870;2023-03-03T21:38:52;101288.91;;;3.69;87.19
71361;BME280;59166;48.908;1.870;2023-03-03T21:43:53;101282.38;;;3.57;87.37
71361;BME280;59166;48.908;1.870;2023-03-03T21:48:55;101282.97;;;3.53;87.16
71361;BME280;59166;48.908;1.870;2023-03-03T21:53:56;101293.97;;;3.43;87.33
71361;BME280;59166;48.908;1.870;2023-03-03T21:58:57;101290.88;;;3.40;88.34
71361;BME280;59166;48.908;1.870;2023-03-03T22:04:00;101290.34;;;3.30;88.46
71361;BME280;59166;48.908;1.870;2023-03-03T22:09:01;101297.69;;;3.28;89.04
71361;BME280;59166;48.908;1.870;2023-03-03T22:14:02;101295.69;;;3.30;89.08
71361;BME280;59166;48.908;1.870;2023-03-03T22:19:05;101296.44;;;3.24;89.29
71361;BME280;59166;48.908;1.870;2023-03-03T22:24:07;101291.28;;;3.22;88.86
71361;BME280;59166;48.908;1.870;2023-03-03T22:29:08;101295.47;;;3.10;89.55
71361;BME280;59166;48.908;1.870;2023-03-03T22:34:10;101298.94;;;3.10;89.99
71361;BME280;59166;48.908;1.870;2023-03-03T22:39:11;101290.31;;;3.08;90.16
71361;BME280;59166;48.908;1.870;2023-03-03T22:44:12;101294.28;;;2.98;90.76
71361;BME280;59166;48.908;1.870;2023-03-03T22:49:15;101291.53;;;2.91;91.24
71361;BME280;59166;48.908;1.870;2023-03-03T22:54:15;101294.81;;;2.93;90.98
71361;BME280;59166;48.908;1.870;2023-03-03T22:59:16;101295.94;;;2.99;90.99
71361;BME280;59166;48.908;1.870;2023-03-03T23:04:18;101295.47;;;2.95;91.20
71361;BME280;59166;48.908;1.870;2023-03-03T23:09:19;101295.72;;;3.00;90.63
71361;BME280;59166;48.908;1.870;2023-03-03T23:14:20;101298.16;;;2.95;91.33
71361;BME280;59166;48.908;1.870;2023-03-03T23:19:23;101311.94;;;2.84;92.09
71361;BME280;59166;48.908;1.870;2023-03-03T23:24:24;101306.16;;;2.95;92.10
71361;BME280;59166;48.908;1.870;2023-03-03T23:29:25;101298.53;;;2.92;91.64
71361;BME280;59166;48.908;1.870;2023-03-03T23:34:27;101305.25;;;2.88;91.89
71361;BME280;59166;48.908;1.870;2023-03-03T23:39:28;101303.03;;;2.92;92.29
71361;BME280;59166;48.908;1.870;2023-03-03T23:44:28;101301.47;;;2.83;92.62
71361;BME280;59166;48.908;1.870;2023-03-03T23:49:31;101307.00;;;2.81;92.34
71361;BME280;59166;48.908;1.870;2023-03-03T23:54:32;101320.06;;;2.76;92.57
71361;BME280;59166;48.908;1.870;2023-03-03T23:59:32;101327.59;;;2.58;92.81
